Time;durP1;ratioP1;P1;durP2;ratioP2;P2;SDS_P1;SDS_P2;PMS_P1;PMS_P2;Temp;Humidity;BMP_temperature;BMP_pressure;BME280_temperature;BME280_humidity;BME280_pressure;Samples;Min_cycle;Max_cycle;Signal;HPM_P1;HPM_P2
2022/05/22 00:02:09;;;;;;;9.13;4.63;;;14.60;1.00;;;;;;5073959;28;20228;-66
2022/05/22 00:04:35;;;;;;;8.57;4.90;;;14.60;1.00;;;;;;5074025;28;20188;-66
2022/05/22 00:07:01;;;;;;;7.83;4.40;;;14.60;1.00;;;;;;5073705;28;20176;-67
2022/05/22 00:09:28;;;;;;;13.40;5.30;;;14.60;1.00;;;;;;5074073;28;20187;-67
2022/05/22 00:11:55;;;;;;;8.87;5.33;;;14.50;1.00;;;;;;5073787;28;20620;-67
2022/05/22 00:14:21;;;;;;;15.57;5.67;;;14.50;1.00;;;;;;5073911;28;20259;-66
2022/05/22 00:16:48;;;;;;;12.40;5.30;;;14.40;1.00;;;;;;5073673;28;20299;-66
2022/05/22 00:19:25;;;;;;;13.27;5.30;;;14.40;1.00;;;;;;5073983;28;20251;-66
2022/05/22 00:21:51;;;;;;;9.90;5.40;;;14.40;7.10;;;;;;5073693;28;20168;-67
2022/05/22 00:24:18;;;;;;;12.43;5.60;;;14.30;4.70;;;;;;5073771;28;20176;-67
2022/05/22 00:26:45;;;;;;;10.23;5.13;;;14.20;6.50;;;;;;5073517;28;20200;-66
2022/05/22 00:29:10;;;;;;;9.13;5.30;;;14.00;14.30;;;;;;5073746;28;20169;-67
2022/05/22 00:31:36;;;;;;;16.27;5.80;;;13.90;22.70;;;;;;5073697;28;20673;-66
2022/05/22 00:34:02;;;;;;;12.87;5.50;;;13.90;25.70;;;;;;5073250;28;20168;-67
2022/05/22 00:36:28;;;;;;;13.20;5.80;;;13.90;29.70;;;;;;5073297;28;20299;-67
2022/05/22 00:38:53;;;;;;;14.00;6.40;;;13.90;29.80;;;;;;5073381;28;20255;-66
2022/05/22 00:41:19;;;;;;;12.37;6.00;;;13.80;29.00;;;;;;5073327;28;20620;-66
2022/05/22 00:43:51;;;;;;;12.30;6.13;;;13.80;30.70;;;;;;5073522;28;20172;-65
2022/05/22 00:46:20;;;;;;;11.10;5.67;;;13.80;33.30;;;;;;5073295;28;20173;-66
2022/05/22 00:48:48;;;;;;;11.00;5.20;;;13.80;31.00;;;;;;5072919;28;20177;-65
2022/05/22 00:51:22;;;;;;;13.97;5.60;;;13.70;32.20;;;;;;5073126;28;20183;-67
2022/05/22 00:53:55;;;;;;;9.20;5.50;;;13.60;39.80;;;;;;5072520;28;20161;-67
2022/05/22 00:56:27;;;;;;;9.50;5.20;;;13.60;42.50;;;;;;5073207;28;20215;-65
2022/05/22 00:58:56;;;;;;;9.80;5.13;;;13.60;42.30;;;;;;5073091;28;20247;-65
2022/05/22 01:01:22;;;;;;;16.03;5.77;;;13.70;42.50;;;;;;5072724;28;20313;-66
2022/05/22 01:03:48;;;;;;;11.87;6.07;;;13.70;38.20;;;;;;5072791;28;20187;-66
2022/05/22 01:06:18;;;;;;;14.17;6.10;;;13.80;34.20;;;;;;5073063;28;20203;-66
2022/05/22 01:08:47;;;;;;;10.33;6.30;;;13.80;31.70;;;;;;5073075;28;20200;-67
2022/05/22 01:11:18;;;;;;;8.87;6.00;;;13.80;32.20;;;;;;5072970;28;20222;-66
2022/05/22 01:13:49;;;;;;;16.47;7.20;;;13.90;29.30;;;;;;5073141;28;20204;-66
2022/05/22 01:16:15;;;;;;;12.63;5.37;;;13.80;29.40;;;;;;5072839;28;20281;-67
2022/05/22 01:18:47;;;;;;;11.93;5.60;;;13.60;38.10;;;;;;5072657;28;20172;-67
2022/05/22 01:21:16;;;;;;;11.57;5.47;;;13.40;46.10;;;;;;5073057;28;20272;-66
2022/05/22 01:23:43;;;;;;;11.17;6.10;;;13.30;47.20;;;;;;5072993;28;20168;-67
2022/05/22 01:26:09;;;;;;;9.83;5.50;;;13.20;53.70;;;;;;5072741;28;20184;-68
2022/05/22 01:28:35;;;;;;;10.63;5.83;;;13.20;58.10;;;;;;5072834;28;20165;-66
2022/05/22 01:31:00;;;;;;;8.50;5.70;;;13.20;57.90;;;;;;5072944;28;20237;-67
2022/05/22 01:33:27;;;;;;;11.00;6.40;;;13.10;59.20;;;;;;5072424;28;20267;-66
2022/05/22 01:35:52;;;;;;;8.80;4.97;;;13.10;59.70;;;;;;5072620;28;20260;-66
2022/05/22 01:38:18;;;;;;;13.87;6.60;;;13.20;58.90;;;;;;5072861;28;20184;-66
2022/05/22 01:40:44;;;;;;;15.03;6.23;;;13.10;57.20;;;;;;5072980;28;20181;-66
2022/05/22 01:43:09;;;;;;;15.00;6.10;;;13.10;58.70;;;;;;5072630;28;20172;-66
2022/05/22 01:45:35;;;;;;;13.23;6.33;;;13.10;59.30;;;;;;5072774;28;20218;-65
2022/05/22 01:48:01;;;;;;;12.00;5.97;;;13.10;58.70;;;;;;5072451;28;20624;-66
2022/05/22 01:50:27;;;;;;;12.87;6.30;;;13.10;59.00;;;;;;5072722;28;20265;-65
2022/05/22 01:52:53;;;;;;;12.70;5.70;;;13.00;61.80;;;;;;5071444;28;20642;-66
2022/05/22 01:55:19;;;;;;;11.70;5.00;;;13.10;63.40;;;;;;5072431;28;20231;-66
2022/05/22 01:57:45;;;;;;;12.00;5.23;;;13.10;62.60;;;;;;5072462;28;20180;-65
2022/05/22 02:00:15;;;;;;;9.63;5.67;;;13.00;62.90;;;;;;5072362;28;20175;-66
2022/05/22 02:02:41;;;;;;;11.47;6.03;;;12.80;67.80;;;;;;5072182;28;20188;-66
2022/05/22 02:05:08;;;;;;;12.13;6.10;;;12.70;76.40;;;;;;5073188;28;20250;-66
2022/05/22 02:10:17;;;;;;;16.47;6.83;;;12.70;86.50;;;;;;5076392;28;20175;-66
2022/05/22 02:12:43;;;;;;;13.40;6.70;;;12.70;84.20;;;;;;5074822;28;20567;-66
2022/05/22 02:15:09;;;;;;;10.50;6.13;;;12.70;85.90;;;;;;5075912;28;20255;-66
2022/05/22 02:17:35;;;;;;;14.23;5.97;;;12.70;86.40;;;;;;5075677;28;20226;-66
2022/05/22 02:20:00;;;;;;;11.17;6.20;;;12.70;85.60;;;;;;5076341;28;20202;-66
2022/05/22 02:22:26;;;;;;;12.23;6.63;;;12.70;81.40;;;;;;5076393;28;20207;-66
2022/05/22 02:24:53;;;;;;;9.20;6.57;;;12.70;82.10;;;;;;5076035;28;20171;-67
2022/05/22 02:27:19;;;;;;;10.20;5.90;;;12.70;84.40;;;;;;5076123;28;20176;-67
2022/05/22 02:29:45;;;;;;;9.97;6.43;;;12.70;87.30;;;;;;5076122;28;20168;-67
2022/05/22 02:32:11;;;;;;;11.60;6.63;;;12.70;84.70;;;;;;5074820;28;20608;-67
2022/05/22 02:34:36;;;;;;;11.67;6.37;;;12.80;83.30;;;;;;5074726;28;20208;-67
2022/05/22 02:37:02;;;;;;;12.20;6.00;;;12.80;80.70;;;;;;5075724;28;20239;-67
2022/05/22 02:39:28;;;;;;;10.80;6.70;;;12.80;81.80;;;;;;5075834;28;20177;-67
2022/05/22 02:41:54;;;;;;;12.53;6.80;;;12.80;85.30;;;;;;5075950;28;20259;-67
2022/05/22 02:44:20;;;;;;;13.47;6.57;;;12.70;87.20;;;;;;5075509;28;20164;-67
2022/05/22 02:46:46;;;;;;;11.80;6.23;;;12.70;87.00;;;;;;5075894;28;20182;-67
2022/05/22 02:49:11;;;;;;;9.93;5.87;;;12.60;90.60;;;;;;5075780;28;20685;-65
2022/05/22 02:51:37;;;;;;;10.80;6.00;;;12.50;92.90;;;;;;5075602;28;20190;-65
2022/05/22 02:54:03;;;;;;;11.00;6.67;;;12.50;95.20;;;;;;5075516;28;20350;-66
2022/05/22 02:56:29;;;;;;;15.23;7.63;;;12.40;96.50;;;;;;5075337;28;20261;-66
2022/05/22 02:58:55;;;;;;;15.63;7.30;;;12.40;96.90;;;;;;5075289;28;20656;-65
2022/05/22 03:01:20;;;;;;;13.07;7.00;;;12.30;97.80;;;;;;5075428;28;20675;-66
2022/05/22 03:03:46;;;;;;;12.37;6.43;;;12.30;96.80;;;;;;5075699;28;20176;-67
2022/05/22 03:08:56;;;;;;;14.23;7.37;;;12.40;95.40;;;;;;5075362;28;20225;-65
2022/05/22 03:11:22;;;;;;;14.17;7.37;;;12.30;94.20;;;;;;5075492;28;20169;-67
2022/05/22 03:13:48;;;;;;;10.77;7.17;;;12.40;94.00;;;;;;5074935;28;20203;-67
2022/05/22 03:16:13;;;;;;;11.70;7.00;;;12.40;92.10;;;;;;5074749;28;20204;-65
2022/05/22 03:18:39;;;;;;;13.97;7.13;;;12.40;91.10;;;;;;5074776;28;20593;-65
2022/05/22 03:21:05;;;;;;;12.90;7.17;;;12.40;91.30;;;;;;5074707;28;20255;-66
2022/05/22 03:23:31;;;;;;;14.27;8.23;;;12.40;91.00;;;;;;5075200;28;20634;-66
2022/05/22 03:25:57;;;;;;;17.93;8.07;;;12.40;90.10;;;;;;5075062;28;20276;-65
2022/05/22 03:28:23;;;;;;;16.53;7.63;;;12.40;91.00;;;;;;5074452;28;20180;-66
2022/05/22 03:30:50;;;;;;;13.37;7.73;;;12.40;91.40;;;;;;5073688;28;20173;-66
2022/05/22 03:33:15;;;;;;;14.27;7.37;;;12.40;91.30;;;;;;5075079;28;20165;-66
2022/05/22 03:35:41;;;;;;;12.93;8.47;;;12.40;91.50;;;;;;5074490;28;20200;-66
2022/05/22 03:38:07;;;;;;;18.50;8.57;;;12.40;90.40;;;;;;5074863;28;20172;-66
2022/05/22 03:40:35;;;;;;;16.67;8.73;;;12.50;83.80;;;;;;5074823;28;20168;-66
2022/05/22 03:43:01;;;;;;;18.87;8.47;;;12.50;82.70;;;;;;5074346;28;20183;-66
2022/05/22 03:45:26;;;;;;;13.97;7.73;;;12.50;83.90;;;;;;5074467;28;20165;-65
2022/05/22 03:47:52;;;;;;;13.27;8.53;;;12.60;80.60;;;;;;5074646;28;20624;-66
2022/05/22 03:50:18;;;;;;;19.10;8.50;;;12.60;80.00;;;;;;5074294;28;20331;-66
2022/05/22 03:52:47;;;;;;;11.17;8.00;;;12.70;75.10;;;;;;5074158;28;20173;-67
2022/05/22 03:55:14;;;;;;;17.37;8.47;;;12.70;73.60;;;;;;5074353;28;20230;-67
2022/05/22 03:57:45;;;;;;;12.97;7.67;;;12.70;74.10;;;;;;5074120;28;20204;-67
2022/05/22 04:00:11;;;;;;;16.00;8.47;;;12.60;77.30;;;;;;5074394;28;20169;-66
2022/05/22 04:02:37;;;;;;;19.93;10.00;;;12.60;83.60;;;;;;5074223;28;20578;-66
2022/05/22 04:05:06;;;;;;;18.90;8.90;;;12.80;84.50;;;;;;5073915;28;20188;-67
2022/05/22 04:07:36;;;;;;;14.63;8.10;;;12.80;78.90;;;;;;5074066;28;20169;-67
2022/05/22 04:10:02;;;;;;;12.93;7.77;;;12.80;81.10;;;;;;5073514;28;20705;-66
2022/05/22 04:12:28;;;;;;;21.10;8.60;;;12.80;88.60;;;;;;5073631;28;20176;-67
2022/05/22 04:14:54;;;;;;;18.13;7.93;;;12.90;92.50;;;;;;5073551;28;20169;-66
2022/05/22 04:17:19;;;;;;;17.73;7.77;;;13.20;92.30;;;;;;5073432;28;20560;-66
2022/05/22 04:19:45;;;;;;;10.43;7.23;;;13.60;81.50;;;;;;5073729;28;20173;-66
2022/05/22 04:22:10;;;;;;;11.90;6.97;;;14.00;59.00;;;;;;5073507;28;20177;-66
2022/05/22 04:27:20;;;;;;;12.87;7.27;;;14.80;26.60;;;;;;5073111;28;20176;-66
2022/05/22 04:29:46;;;;;;;13.03;6.67;;;15.60;13.70;;;;;;5071384;28;20612;-65
2022/05/22 04:32:11;;;;;;;12.93;6.40;;;16.20;1.00;;;;;;5073377;28;20173;-65
2022/05/22 04:34:37;;;;;;;11.30;7.10;;;17.10;1.00;;;;;;5073491;28;20176;-66
2022/05/22 04:37:03;;;;;;;12.03;6.40;;;17.50;1.00;;;;;;5073362;28;20215;-66
2022/05/22 04:39:28;;;;;;;14.50;6.53;;;18.20;1.00;;;;;;5073750;28;20173;-66
2022/05/22 04:41:54;;;;;;;10.60;6.30;;;18.60;1.00;;;;;;5072856;28;20199;-66
2022/05/22 04:44:20;;;;;;;11.73;6.60;;;19.10;99.90;;;;;;5072841;28;20267;-66
2022/05/22 04:46:46;;;;;;;12.05;6.15;;;19.00;77.70;;;;;;5072728;28;20188;-66
2022/05/22 04:49:12;;;;;;;10.70;6.15;;;19.00;99.90;;;;;;5073099;28;20176;-66
2022/05/22 04:51:37;;;;;;;8.25;6.28;;;19.30;1.00;;;;;;5072794;28;20169;-68
2022/05/22 04:54:03;;;;;;;9.20;6.30;;;19.40;1.00;;;;;;5073166;28;20168;-67
2022/05/22 04:56:29;;;;;;;11.85;5.93;;;19.60;1.00;;;;;;5072423;28;20682;-67
2022/05/22 04:58:55;;;;;;;13.65;6.22;;;20.10;99.90;;;;;;5072693;28;20164;-66
2022/05/22 05:01:21;;;;;;;12.27;6.53;;;20.70;1.00;;;;;;5072733;28;20580;-67
2022/05/22 05:03:46;;;;;;;13.30;6.15;;;21.50;1.00;;;;;;5072979;28;20164;-67
2022/05/22 05:06:12;;;;;;;9.68;6.68;;;22.00;1.00;;;;;;5072900;28;20192;-67
2022/05/22 05:08:38;;;;;;;16.23;6.05;;;22.50;1.00;;;;;;5072698;28;20263;-67
2022/05/22 05:11:04;;;;;;;11.48;6.43;;;22.50;1.00;;;;;;5072527;28;20180;-67
2022/05/22 05:13:29;;;;;;;10.77;6.18;;;22.50;1.00;;;;;;5072253;28;20259;-67
2022/05/22 05:16:04;;;;;;;13.38;7.35;;;22.60;99.90;;;;;;5072625;28;20231;-67
2022/05/22 05:18:30;;;;;;;9.88;5.72;;;22.70;99.90;;;;;;5072804;28;20263;-66
2022/05/22 05:20:59;;;;;;;9.77;5.82;;;23.00;91.90;;;;;;5072858;28;20161;-67
2022/05/22 05:23:24;;;;;;;10.48;6.55;;;23.70;1.00;;;;;;5072686;28;20531;-68
2022/05/22 05:25:50;;;;;;;12.80;7.28;;;24.70;1.00;;;;;;5072304;28;20180;-66
2022/05/22 05:28:16;;;;;;;11.15;7.32;;;25.40;99.90;;;;;;5072847;28;20239;-68
2022/05/22 05:30:42;;;;;;;15.82;7.43;;;25.40;99.90;;;;;;5072909;28;20172;-67
2022/05/22 05:33:07;;;;;;;11.50;6.78;;;25.70;99.90;;;;;;5073011;28;20275;-68
2022/05/22 05:35:33;;;;;;;11.05;7.25;;;26.10;99.90;;;;;;5072750;28;20630;-67
2022/05/22 05:37:59;;;;;;;6.43;5.70;;;26.20;99.90;;;;;;5072680;28;20633;-68
2022/05/22 05:40:24;;;;;;;14.40;6.78;;;25.50;99.90;;;;;;5073853;28;20172;-68
2022/05/22 05:42:50;;;;;;;7.95;6.20;;;25.20;99.90;;;;;;5076666;28;20207;-68
2022/05/22 05:45:17;;;;;;;8.07;5.47;;;26.20;99.90;;;;;;5076751;28;20203;-68
2022/05/22 05:47:46;;;;;;;9.80;5.63;;;27.20;99.90;;;;;;5076384;28;20224;-68
2022/05/22 05:50:12;;;;;;;9.48;5.40;;;28.40;99.90;;;;;;5076408;28;20223;-67
2022/05/22 05:52:38;;;;;;;8.35;5.10;;;29.30;99.90;;;;;;5076459;28;20180;-68
2022/05/22 05:55:04;;;;;;;10.25;5.85;;;30.20;99.90;;;;;;5075760;28;20693;-67
2022/05/22 05:57:29;;;;;;;6.70;4.75;;;31.50;99.90;;;;;;5076143;28;20180;-66
2022/05/22 05:59:55;;;;;;;8.07;4.82;;;30.20;99.90;;;;;;5076231;28;20731;-67
2022/05/22 06:02:21;;;;;;;7.10;4.05;;;31.20;99.90;;;;;;5076094;28;20303;-67
2022/05/22 06:04:46;;;;;;;7.25;4.03;;;31.70;99.90;;;;;;5076036;28;20213;-67
2022/05/22 06:07:12;;;;;;;6.47;3.10;;;31.40;95.30;;;;;;5076277;28;20171;-67
2022/05/22 06:09:38;;;;;;;4.20;3.15;;;31.10;91.50;;;;;;5075766;28;20223;-67
2022/05/22 06:12:04;;;;;;;4.90;3.08;;;31.30;84.70;;;;;;5076320;28;20188;-67
2022/05/22 06:14:30;;;;;;;5.38;3.20;;;31.40;78.50;;;;;;5075544;28;20192;-68
2022/05/22 06:16:56;;;;;;;8.27;2.95;;;31.20;74.30;;;;;;5075931;28;20297;-67
2022/05/22 06:22:07;;;;;;;8.20;3.03;;;28.70;94.40;;;;;;5075604;28;20260;-68
2022/05/22 06:24:36;;;;;;;7.50;3.00;;;30.20;91.20;;;;;;5075728;28;20177;-68
2022/05/22 06:27:03;;;;;;;7.85;3.22;;;29.70;87.70;;;;;;5075587;28;20172;-68
2022/05/22 06:29:28;;;;;;;7.50;3.40;;;27.80;93.50;;;;;;5075903;28;20259;-68
2022/05/22 06:31:54;;;;;;;5.47;2.72;;;26.90;99.90;;;;;;5075649;28;20746;-68
2022/05/22 06:34:22;;;;;;;7.88;3.47;;;27.30;99.90;;;;;;5075823;28;20179;-68
2022/05/22 06:36:49;;;;;;;6.93;3.15;;;27.80;99.90;;;;;;5075053;28;20232;-68
2022/05/22 06:41:59;;;;;;;8.82;3.88;;;27.20;99.90;;;;;;5076033;28;20183;-68
2022/05/22 06:44:24;;;;;;;5.03;3.40;;;25.60;99.90;;;;;;5075647;28;20173;-68
2022/05/22 06:46:50;;;;;;;8.35;3.80;;;25.80;99.90;;;;;;5075101;28;20169;-68
2022/05/22 06:49:16;;;;;;;4.60;3.28;;;25.60;99.90;;;;;;5075821;28;20198;-67
2022/05/22 06:51:41;;;;;;;5.13;3.30;;;24.70;99.90;;;;;;5073707;28;20215;-68
2022/05/22 06:54:07;;;;;;;4.68;3.38;;;23.90;99.90;;;;;;5075657;28;20272;-68
2022/05/22 06:56:32;;;;;;;6.15;3.53;;;25.10;99.90;;;;;;5075445;28;20637;-67
2022/05/22 06:58:58;;;;;;;5.32;3.60;;;25.70;99.90;;;;;;5075197;28;20206;-67
2022/05/22 07:01:26;;;;;;;7.32;3.78;;;25.80;99.90;;;;;;5073683;28;20630;-67
2022/05/22 07:03:52;;;;;;;8.45;4.05;;;26.50;99.90;;;;;;5075291;28;20164;-67
2022/05/22 07:06:17;;;;;;;7.88;3.75;;;27.40;99.90;;;;;;5074969;28;20196;-68
2022/05/22 07:08:43;;;;;;;5.38;3.67;;;27.40;99.90;;;;;;5075075;28;20568;-67
2022/05/22 07:13:53;;;;;;;5.50;3.42;;;26.70;99.90;;;;;;5075187;28;20585;-68
2022/05/22 07:16:19;;;;;;;7.38;3.90;;;27.40;99.90;;;;;;5074995;28;20291;-68
2022/05/22 07:18:44;;;;;;;6.40;3.63;;;27.80;99.90;;;;;;5074818;28;20176;-68
2022/05/22 07:21:10;;;;;;;4.38;3.60;;;28.80;99.90;;;;;;5074499;28;20583;-68
2022/05/22 07:23:35;;;;;;;7.18;2.97;;;30.30;99.90;;;;;;5074986;28;20172;-67
2022/05/22 07:26:01;;;;;;;8.35;3.60;;;31.00;96.90;;;;;;5073769;28;20510;-68
2022/05/22 07:28:27;;;;;;;5.32;4.00;;;29.20;94.80;;;;;;5074884;28;20181;-67
2022/05/22 07:30:53;;;;;;;10.48;4.50;;;26.90;99.90;;;;;;5074966;28;20177;-67
2022/05/22 07:33:18;;;;;;;9.43;4.25;;;26.60;99.90;;;;;;5075000;28;20612;-67
2022/05/22 07:35:58;;;;;;;6.97;3.92;;;27.30;99.90;;;;;;5073810;28;20246;-68
2022/05/22 07:38:24;;;;;;;8.13;3.90;;;27.60;99.90;;;;;;5074377;28;20173;-67
2022/05/22 07:40:51;;;;;;;7.47;3.70;;;26.20;99.90;;;;;;5074337;28;20287;-67
2022/05/22 07:43:17;;;;;;;8.90;4.25;;;27.00;99.90;;;;;;5074519;28;20180;-66
2022/05/22 07:45:43;;;;;;;8.90;4.75;;;27.10;99.90;;;;;;5073870;28;20195;-69
2022/05/22 07:48:09;;;;;;;6.32;3.97;;;26.90;99.90;;;;;;5074194;28;20674;-67
2022/05/22 07:50:34;;;;;;;6.82;3.95;;;27.20;99.90;;;;;;5073391;28;20168;-67
2022/05/22 07:53:01;;;;;;;12.20;4.38;;;26.50;99.90;;;;;;5074424;28;20525;-67
2022/05/22 07:55:27;;;;;;;7.45;4.25;;;27.80;99.90;;;;;;5074107;28;20608;-68
2022/05/22 07:57:52;;;;;;;6.50;4.03;;;27.80;99.90;;;;;;5073561;28;20200;-69
2022/05/22 08:00:20;;;;;;;4.90;3.75;;;28.90;99.90;;;;;;5073734;28;20173;-69
2022/05/22 08:02:47;;;;;;;8.02;4.40;;;28.70;99.90;;;;;;5073543;28;20229;-68
2022/05/22 08:05:15;;;;;;;6.45;3.97;;;28.70;99.90;;;;;;5073481;28;20563;-69
2022/05/22 08:07:41;;;;;;;6.85;4.10;;;29.10;99.90;;;;;;5073599;28;20211;-69
2022/05/22 08:10:09;;;;;;;9.30;3.97;;;28.40;99.90;;;;;;5073530;28;20291;-68
2022/05/22 08:12:41;;;;;;;6.45;4.00;;;28.00;99.90;;;;;;5073624;28;20211;-67
2022/05/22 08:15:08;;;;;;;8.25;4.28;;;28.50;99.90;;;;;;5073288;28;20628;-68
2022/05/22 08:17:36;;;;;;;8.02;4.18;;;29.20;99.90;;;;;;5073888;28;20206;-69
2022/05/22 08:20:07;;;;;;;8.13;3.97;;;30.00;98.10;;;;;;5072964;28;20165;-69
2022/05/22 08:22:33;;;;;;;5.70;3.72;;;31.20;91.60;;;;;;5073812;28;20176;-69
2022/05/22 08:25:01;;;;;;;5.57;3.55;;;31.70;78.20;;;;;;5073211;28;20165;-68
2022/05/22 08:27:27;;;;;;;6.22;3.90;;;31.30;74.60;;;;;;5073486;28;20164;-70
2022/05/22 08:29:54;;;;;;;6.88;4.50;;;32.10;68.60;;;;;;5073598;28;20200;-67
2022/05/22 08:32:19;;;;;;;7.90;4.60;;;30.40;63.20;;;;;;5073253;28;20174;-68
2022/05/22 08:34:45;;;;;;;7.78;3.90;;;28.40;74.50;;;;;;5073191;28;20588;-68
2022/05/22 08:37:11;;;;;;;7.82;4.20;;;27.90;91.20;;;;;;5073163;28;20208;-68
2022/05/22 08:39:36;;;;;;;7.30;3.63;;;29.30;90.80;;;;;;5073404;28;20251;-69
2022/05/22 08:42:08;;;;;;;6.97;3.28;;;29.30;84.30;;;;;;5073817;28;20180;-69
2022/05/22 08:44:34;;;;;;;5.85;3.50;;;28.90;73.30;;;;;;5073265;28;20168;-68
2022/05/22 08:47:03;;;;;;;6.88;3.70;;;28.40;76.60;;;;;;5072681;28;20306;-68
2022/05/22 08:49:37;;;;;;;5.75;3.35;;;26.60;90.80;;;;;;5072492;28;20165;-68
2022/05/22 08:52:13;;;;;;;7.68;3.28;;;26.60;99.40;;;;;;5072709;28;20624;-68
2022/05/22 08:54:45;;;;;;;7.43;3.53;;;27.80;96.10;;;;;;5073092;28;20177;-68
2022/05/22 09:00:10;;;;;;;5.90;3.88;;;31.00;71.00;;;;;;5072943;28;20176;-69
2022/05/22 09:02:47;;;;;;;5.40;3.30;;;30.50;59.20;;;;;;5072486;28;20220;-68
2022/05/22 09:05:20;;;;;;;5.15;3.58;;;30.90;57.10;;;;;;5073199;28;20188;-68
2022/05/22 09:08:03;;;;;;;6.28;2.92;;;30.30;58.10;;;;;;5072285;28;20619;-70
2022/05/22 09:11:06;;;;;;;5.85;3.30;;;31.80;53.50;;;;;;5072803;28;20165;-69
2022/05/22 09:13:50;;;;;;;5.97;3.30;;;32.80;42.30;;;;;;5073039;28;20172;-69
2022/05/22 09:16:27;;;;;;;6.47;3.55;;;33.10;41.00;;;;;;5071817;28;20246;-69
2022/05/22 09:19:00;;;;;;;3.75;3.35;;;33.70;30.30;;;;;;5072436;28;20201;-69
2022/05/22 09:21:36;;;;;;;5.30;3.40;;;31.50;28.60;;;;;;5072800;28;20168;-69
2022/05/22 09:24:03;;;;;;;5.50;3.00;;;30.00;32.50;;;;;;5072936;28;20165;-70
2022/05/22 09:26:48;;;;;;;6.57;3.13;;;30.50;38.40;;;;;;5072957;28;20187;-69
2022/05/22 09:29:26;;;;;;;4.82;2.88;;;31.90;34.30;;;;;;5072503;28;20200;-70
2022/05/22 09:32:27;;;;;;;5.55;3.10;;;32.30;28.70;;;;;;5072461;28;20172;-69
2022/05/22 09:35:10;;;;;;;6.07;2.60;;;32.10;28.70;;;;;;5072451;28;20171;-69
2022/05/22 09:38:19;;;;;;;3.60;2.53;;;33.00;24.10;;;;;;5072665;28;20188;-69
2022/05/22 09:40:50;;;;;;;6.63;3.00;;;32.10;24.00;;;;;;5052798;28;20176;-68
2022/05/22 09:43:27;;;;;;;3.80;3.13;;;33.30;20.70;;;;;;5072467;28;20176;-69
2022/05/22 09:46:31;;;;;;;4.97;2.83;;;32.80;17.40;;;;;;5072439;28;20623;-68
2022/05/22 09:49:16;;;;;;;4.35;2.85;;;32.60;17.70;;;;;;5072632;28;20168;-70
2022/05/22 09:51:56;;;;;;;4.63;3.25;;;32.30;15.40;;;;;;5072668;28;20176;-69
2022/05/22 09:54:49;;;;;;;5.10;2.80;;;32.80;12.90;;;;;;5072626;28;20199;-69
2022/05/22 09:57:40;;;;;;;3.30;2.60;;;33.30;12.10;;;;;;5071965;28;20212;-69
2022/05/22 10:00:06;;;;;;;4.70;2.75;;;33.10;10.70;;;;;;5072140;28;20182;-69
2022/05/22 10:02:53;;;;;;;5.22;2.75;;;33.50;7.80;;;;;;5072318;28;20224;-69
2022/05/22 10:05:50;;;;;;;4.90;2.40;;;33.90;6.80;;;;;;5071620;28;20211;-70
2022/05/22 10:08:41;;;;;;;3.45;2.53;;;33.20;7.00;;;;;;5072033;28;20680;-68
2022/05/22 10:11:27;;;;;;;3.70;2.40;;;33.40;5.20;;;;;;5072184;28;20184;-68
2022/05/22 10:13:59;;;;;;;4.30;2.28;;;34.00;2.40;;;;;;5072236;28;20222;-67
2022/05/22 10:16:43;;;;;;;3.40;2.15;;;34.00;1.60;;;;;;5072037;28;20215;-69
2022/05/22 10:19:46;;;;;;;3.88;2.13;;;34.40;1.00;;;;;;5072350;28;20279;-68
2022/05/22 10:22:20;;;;;;;5.22;2.38;;;33.80;1.00;;;;;;5072243;28;20237;-70
2022/05/22 10:25:23;;;;;;;4.78;2.40;;;32.90;1.20;;;;;;5071785;28;20196;-68
2022/05/22 10:27:56;;;;;;;3.40;2.30;;;32.70;3.00;;;;;;5075960;28;20168;-68
2022/05/22 10:30:38;;;;;;;2.60;2.40;;;32.90;2.50;;;;;;5075146;28;20172;-68
2022/05/22 10:33:10;;;;;;;3.65;2.42;;;32.10;4.90;;;;;;5075855;28;20180;-69
2022/05/22 10:35:51;;;;;;;3.33;2.50;;;30.50;5.60;;;;;;5075305;28;20204;-66
2022/05/22 10:38:20;;;;;;;3.90;2.22;;;28.10;15.60;;;;;;5075085;28;20250;-68
2022/05/22 10:43:36;;;;;;;4.32;2.50;;;28.60;18.60;;;;;;5075261;28;20631;-67
2022/05/22 10:46:01;;;;;;;3.55;2.75;;;28.60;18.90;;;;;;5074870;28;20241;-68
2022/05/22 10:48:28;;;;;;;4.68;2.58;;;29.40;34.30;;;;;;5074036;28;20173;-68
2022/05/22 10:51:20;;;;;;;3.10;2.70;;;30.30;17.70;;;;;;5074786;28;20177;-68
2022/05/22 10:53:45;;;;;;;3.00;2.60;;;32.20;12.20;;;;;;5075572;28;20171;-68
2022/05/22 10:56:14;;;;;;;3.75;2.50;;;32.70;8.30;;;;;;5074659;28;20216;-70
2022/05/22 10:58:55;;;;;;;4.65;2.83;;;33.20;3.80;;;;;;5074779;28;20172;-69
2022/05/22 11:01:25;;;;;;;8.70;3.08;;;32.60;3.80;;;;;;5074538;28;20216;-67
2022/05/22 11:04:10;;;;;;;3.63;2.63;;;31.00;5.50;;;;;;5075194;28;20174;-69
2022/05/22 11:06:50;;;;;;;6.28;2.85;;;30.80;10.10;;;;;;5074834;28;20632;-69
2022/05/22 11:09:27;;;;;;;5.45;3.85;;;31.60;8.90;;;;;;5075243;28;20168;-68
2022/05/22 11:12:11;;;;;;;5.47;4.00;;;31.30;7.10;;;;;;5074384;28;20190;-68
2022/05/22 11:14:37;;;;;;;4.18;2.58;;;31.20;7.30;;;;;;5075119;28;20251;-68
2022/05/22 11:17:19;;;;;;;3.72;3.08;;;30.50;9.70;;;;;;5074941;28;20208;-68
2022/05/22 11:19:52;;;;;;;3.72;2.88;;;30.50;10.20;;;;;;5074521;28;20624;-68
2022/05/22 11:22:40;;;;;;;6.53;2.88;;;30.60;11.20;;;;;;5074917;28;20183;-67
2022/05/22 11:25:23;;;;;;;5.03;2.50;;;31.50;11.00;;;;;;5074461;28;20194;-69
2022/05/22 11:28:19;;;;;;;6.50;3.60;;;31.90;7.60;;;;;;5074520;28;20172;-68
2022/05/22 11:30:54;;;;;;;4.07;3.10;;;31.40;9.30;;;;;;5074984;28;20317;-66
2022/05/22 11:33:40;;;;;;;6.03;3.00;;;29.50;9.60;;;;;;5074114;28;20169;-68
2022/05/22 11:36:24;;;;;;;9.32;3.92;;;29.40;15.10;;;;;;5074620;28;20227;-68
2022/05/22 11:39:09;;;;;;;6.82;3.53;;;28.60;16.40;;;;;;5073604;28;20206;-68
2022/05/22 11:41:37;;;;;;;4.60;3.38;;;27.50;22.10;;;;;;5074140;28;20259;-67
2022/05/22 11:44:26;;;;;;;7.32;3.10;;;27.00;28.10;;;;;;5074669;28;20176;-67
2022/05/22 11:47:15;;;;;;;5.53;2.92;;;27.20;30.80;;;;;;5054976;28;20176;-67
2022/05/22 11:50:19;;;;;;;2.85;2.58;;;27.50;33.20;;;;;;5073734;28;20173;-67
2022/05/22 11:53:08;;;;;;;4.88;3.03;;;27.80;35.30;;;;;;5032273;28;20178;-67
2022/05/22 11:55:45;;;;;;;4.38;3.70;;;26.60;41.90;;;;;;5031238;28;20174;-66
2022/05/22 11:58:34;;;;;;;4.05;3.25;;;25.70;55.70;;;;;;5031465;28;20192;-66
2022/05/22 12:01:21;;;;;;;4.65;2.83;;;25.90;68.30;;;;;;5032040;28;20214;-66
2022/05/22 12:03:58;;;;;;;5.05;3.15;;;25.30;84.00;;;;;;5031054;28;20189;-67
2022/05/22 12:07:07;;;;;;;5.45;3.00;;;25.10;97.30;;;;;;5032437;28;20217;-66
2022/05/22 12:10:08;;;;;;;7.28;3.05;;;24.70;99.90;;;;;;5031497;28;20174;-66
2022/05/22 12:12:52;;;;;;;4.75;2.90;;;24.60;99.90;;;;;;5031333;28;20184;-66
2022/05/22 12:15:44;;;;;;;3.80;2.90;;;24.60;99.90;;;;;;5031988;28;20192;-66
2022/05/22 12:18:46;;;;;;;6.40;3.30;;;24.00;99.90;;;;;;5031048;28;20201;-65
2022/05/22 12:21:15;;;;;;;4.88;2.60;;;23.70;99.90;;;;;;5031379;28;20265;-65
2022/05/22 12:23:52;;;;;;;5.53;2.90;;;24.20;99.90;;;;;;5055499;28;20180;-64
2022/05/22 12:26:20;;;;;;;5.93;3.80;;;24.10;99.90;;;;;;5073130;28;20172;-66
2022/05/22 12:29:09;;;;;;;3.78;3.10;;;23.40;99.90;;;;;;5073291;28;20195;-66
2022/05/22 12:31:44;;;;;;;4.45;3.00;;;23.70;99.90;;;;;;5072966;28;20519;-65
2022/05/22 12:34:13;;;;;;;4.28;3.13;;;24.20;99.90;;;;;;5073065;28;20493;-66
2022/05/22 12:36:45;;;;;;;3.42;2.70;;;24.50;99.90;;;;;;5073214;28;20208;-66
2022/05/22 12:39:13;;;;;;;4.38;2.92;;;24.60;99.90;;;;;;5072518;28;20169;-66
2022/05/22 12:42:03;;;;;;;4.85;2.55;;;24.50;99.90;;;;;;5073345;28;20176;-67
2022/05/22 12:44:29;;;;;;;4.05;3.22;;;24.70;99.90;;;;;;5073154;28;20175;-67
2022/05/22 12:46:57;;;;;;;6.10;2.90;;;24.70;99.90;;;;;;5073103;28;20255;-67
2022/05/22 12:49:32;;;;;;;7.25;2.88;;;24.50;99.90;;;;;;5072192;28;20165;-67
2022/05/22 12:52:30;;;;;;;7.38;4.97;;;24.20;99.90;;;;;;5072387;28;20176;-67
2022/05/22 12:55:25;;;;;;;4.57;3.42;;;23.30;99.90;;;;;;5072437;28;20180;-67
2022/05/22 12:57:56;;;;;;;4.65;3.15;;;23.10;99.90;;;;;;5065128;28;20196;-67
2022/05/22 13:00:39;;;;;;;5.55;2.65;;;23.30;99.90;;;;;;5071799;28;20179;-67
2022/05/22 13:03:11;;;;;;;5.32;3.05;;;23.70;99.90;;;;;;5071597;28;20184;-67
2022/05/22 13:05:37;;;;;;;3.97;3.05;;;23.90;99.90;;;;;;5072589;28;20227;-68
2022/05/22 13:08:26;;;;;;;7.95;4.13;;;24.20;99.90;;;;;;5072556;28;20173;-68
2022/05/22 13:10:58;;;;;;;5.80;2.97;;;24.10;99.90;;;;;;5072822;28;20172;-68
2022/05/22 13:13:37;;;;;;;5.57;3.17;;;24.50;99.90;;;;;;5072648;28;20204;-68
2022/05/22 13:16:08;;;;;;;4.00;2.90;;;24.30;99.90;;;;;;5072953;28;20250;-68
2022/05/22 13:18:47;;;;;;;5.18;2.67;;;24.70;99.90;;;;;;5072392;28;20169;-67
2022/05/22 13:21:31;;;;;;;3.53;2.53;;;25.00;99.90;;;;;;5072359;28;20627;-67
2022/05/22 13:24:02;;;;;;;3.67;3.15;;;25.00;99.90;;;;;;5072565;28;20172;-68
2022/05/22 13:26:32;;;;;;;4.72;2.75;;;24.70;99.90;;;;;;5072836;28;20203;-66
2022/05/22 13:29:13;;;;;;;4.75;3.35;;;24.50;99.90;;;;;;5072488;28;20160;-67